Portada
METAR-TAF:

METAR-TAF

Aeroports :

Manila, Filipines

latitud: 14-31N, longitud: 121-00E, altitud: 14 m

Observació

L'informe es va fer fa 31 minuts, a les 00:00 UTC
Vent 6 kt del Est, variant entre Est/Nord-Est i Sud-Est
Temperatura 30°C
Humitat 66%
Pressió 1012 hPa
Visibilitat 10 km o més
Escasses núvols a una alçada de 2500 ft

METAR: RPLL 300000Z 10006KT 060V130 9999 FEW025 30/23 Q1012 NOSIG RMK A2988

Hora: 08:31 (00:31 UTC)

Pronòstic

L'informe es va fer fa 1 hora i 31 minuts, a les 23:00 UTC
Pronòstic vàlid del 30 a les 00 UTC al 31 a les 06 UTC
Vent 8 kt del Est/Sud-Est
Visibilitat 10 km o més
Escasses núvols a una alçada de 2500 ft
Temporalment
l' 30 a les 00 UTC al 30 a les 06 UTC
Vent 14 kt del Sud-Est
Núvols disperses a una alçada de 2300 ft
Temporalment
l' 30 a les 06 UTC al 30 a les 12 UTC
Vent 16 kt del Est/Sud-Est

TAF: RPLL 292300Z 3000/3106 11008KT 9999 FEW025 TX34/3006Z TN26/3021Z TEMPO 3000/3006 13014KT SCT023 TEMPO 3006/3012 12016KT

Observacions i pronòstics meteorològics de més de 4000 aeroports (METAR i TAF).

Les estacions disponibles són els punts grocs i vermells al mapa.

Posi el ratolí al punt desitjat per veure el nom de l'estació.

Feu clic per veure les observacions i els pronòstics meteorològics.

Per canviar el mapa: feu clic els botons verds amb una creu de color negre per apropar; al botó verd amb un guió per allunyar la imatge; o en les fletxes verdes per a mapes adjacents.


METAR-TAF: